Time;durP1;ratioP1;P1;durP2;ratioP2;P2;SDS_P1;SDS_P2;PMS_P1;PMS_P2;Temp;Humidity;BMP_temperature;BMP_pressure;BME280_temperature;BME280_humidity;BME280_pressure;Samples;Min_cycle;Max_cycle;Signal;HPM_P1;HPM_P2
2022/12/28 00:00:13;;;;;;;12.60;6.00;;;;;;;4.52;75.48;100911.23;126232;1295;107535;-76
2022/12/28 00:03:40;;;;;;;11.10;5.90;;;;;;;4.45;75.50;100910.66;126196;1307;109312;-76
2022/12/28 00:06:46;;;;;;;12.60;6.00;;;;;;;4.40;75.52;100911.34;126223;1301;107543;-79
2022/12/28 00:09:51;;;;;;;13.70;5.70;;;;;;;4.38;75.67;100910.20;126187;1301;108489;-76
2022/12/28 00:12:57;;;;;;;9.90;5.60;;;;;;;4.37;75.52;100911.02;126211;1301;107569;-76
2022/12/28 00:16:10;;;;;;;10.60;5.60;;;;;;;4.33;75.61;100911.05;126197;1301;107431;-76
2022/12/28 00:19:17;;;;;;;11.30;5.70;;;;;;;4.27;75.42;100914.25;126228;1301;107466;-76
2022/12/28 00:22:22;;;;;;;11.00;6.00;;;;;;;4.19;75.52;100912.98;126206;1301;106724;-76
2022/12/28 00:25:28;;;;;;;12.10;5.70;;;;;;;4.12;75.62;100910.94;126237;1301;107512;-76
2022/12/28 00:28:33;;;;;;;13.80;6.50;;;;;;;4.05;75.57;100908.90;126206;1301;107550;-76
2022/12/28 00:31:39;;;;;;;9.50;5.90;;;;;;;4.00;75.51;100909.61;126200;1298;107589;-76
2022/12/28 00:34:44;;;;;;;13.50;6.20;;;;;;;3.94;75.61;100909.95;126208;1302;107550;-76
2022/12/28 00:37:50;;;;;;;10.80;6.00;;;;;;;3.87;75.76;100913.17;126265;1301;107256;-79
2022/12/28 00:40:56;;;;;;;11.60;6.50;;;;;;;3.78;75.79;100916.89;126167;1301;106660;-77
2022/12/28 00:44:01;;;;;;;11.00;5.90;;;;;;;3.69;75.87;100917.45;126173;1302;107266;-77
2022/12/28 00:47:07;;;;;;;10.30;5.60;;;;;;;3.63;75.85;100915.73;126139;1294;107637;-77
2022/12/28 00:50:12;;;;;;;9.50;4.60;;;;;;;3.59;75.79;100918.09;126194;1292;107509;-79
2022/12/28 00:53:18;;;;;;;10.70;5.10;;;;;;;3.55;75.94;100917.59;126227;1300;107388;-78
2022/12/28 00:56:24;;;;;;;12.90;5.50;;;;;;;3.53;75.85;100917.02;126203;1301;106868;-78
2022/12/28 00:59:29;;;;;;;8.40;5.10;;;;;;;3.49;75.88;100916.01;126175;1303;107491;-78
2022/12/28 01:02:35;;;;;;;9.90;5.50;;;;;;;3.43;75.85;100915.48;126184;1302;107523;-78
2022/12/28 01:05:42;;;;;;;12.40;6.40;;;;;;;3.38;75.83;100920.16;126073;1301;107655;-78
2022/12/28 01:08:47;;;;;;;10.10;5.80;;;;;;;3.31;75.98;100919.51;126204;1308;107359;-80
2022/12/28 01:11:53;;;;;;;12.90;5.90;;;;;;;3.25;76.01;100918.66;126190;1300;107532;-79
2022/12/28 01:15:01;;;;;;;11.10;5.60;;;;;;;3.19;76.14;100923.42;126189;1301;108715;-79
2022/12/28 01:18:07;;;;;;;11.90;5.50;;;;;;;3.13;76.20;100924.82;126115;1302;107532;-79
2022/12/28 01:21:15;;;;;;;10.10;6.00;;;;;;;3.05;76.26;100923.64;126187;1308;108243;-79
2022/12/28 01:24:21;;;;;;;10.40;5.50;;;;;;;2.99;76.18;100922.66;126225;1302;107595;-78
2022/12/28 01:27:27;;;;;;;12.70;6.10;;;;;;;2.92;76.36;100916.85;126011;1301;205488;-79
2022/12/28 01:30:33;;;;;;;11.00;4.60;;;;;;;2.90;76.46;100915.39;126203;1301;107523;-77
2022/12/28 01:33:39;;;;;;;11.10;5.90;;;;;;;2.89;76.42;100909.65;126183;1299;106372;-77
2022/12/28 01:36:44;;;;;;;12.00;6.20;;;;;;;2.89;76.32;100903.99;126175;1302;107265;-77
2022/12/28 01:39:50;;;;;;;11.70;6.20;;;;;;;2.88;76.34;100905.48;126189;1301;108589;-78
2022/12/28 01:42:55;;;;;;;12.60;6.80;;;;;;;2.85;76.43;100907.97;126162;1301;107529;-76
2022/12/28 01:46:01;;;;;;;12.70;6.80;;;;;;;2.79;76.42;100902.67;126053;1304;107548;-77
2022/12/28 01:49:11;;;;;;;14.70;7.00;;;;;;;2.75;76.51;100898.52;126205;1302;107658;-76
2022/12/28 01:52:22;;;;;;;13.50;7.30;;;;;;;2.69;76.35;100894.29;126229;1299;107541;-79
2022/12/28 01:55:32;;;;;;;13.60;6.60;;;;;;;2.62;76.24;100892.23;126204;1293;107662;-76
2022/12/28 01:58:39;;;;;;;15.60;7.30;;;;;;;2.53;76.37;100885.32;126047;1302;107524;-76
2022/12/28 02:01:46;;;;;;;13.20;7.10;;;;;;;2.44;76.47;100881.96;126220;1301;107638;-76
2022/12/28 02:04:52;;;;;;;13.70;7.40;;;;;;;2.38;76.39;100874.73;126168;1302;107389;-76
2022/12/28 02:08:04;;;;;;;12.70;7.50;;;;;;;2.31;76.67;100870.77;126301;1301;106494;-79
2022/12/28 02:11:14;;;;;;;14.80;7.50;;;;;;;2.26;76.66;100868.73;126205;1301;107444;-78
2022/12/28 02:14:21;;;;;;;11.50;6.70;;;;;;;2.23;76.71;100864.70;126198;1301;107404;-76
2022/12/28 02:17:30;;;;;;;9.70;5.70;;;;;;;2.23;76.81;100866.77;126162;1301;107538;-76
2022/12/28 02:20:46;;;;;;;13.60;7.10;;;;;;;2.26;76.69;100867.35;126214;1301;107472;-79
2022/12/28 02:24:15;;;;;;;15.10;7.50;;;;;;;2.28;76.75;100861.77;126250;1302;107530;-76
2022/12/28 02:27:29;;;;;;;14.40;7.50;;;;;;;2.27;76.51;100858.67;126201;1301;107521;-77
2022/12/28 02:30:42;;;;;;;13.30;7.10;;;;;;;2.24;76.55;100856.19;126191;1301;107555;-77
2022/12/28 02:33:56;;;;;;;12.60;7.60;;;;;;;2.18;77.01;100860.05;126193;1301;107256;-78
2022/12/28 02:37:10;;;;;;;14.10;7.60;;;;;;;2.13;76.95;100858.05;126093;1294;108639;-78
2022/12/28 02:40:20;;;;;;;13.80;7.20;;;;;;;2.08;77.02;100860.05;126164;1297;107366;-78
2022/12/28 02:43:27;;;;;;;14.10;8.00;;;;;;;2.05;77.03;100861.12;126133;1302;107543;-78
2022/12/28 02:50:07;;;;;;;15.50;7.70;;;;;;;1.95;76.99;100859.02;126166;1292;107463;-78
2022/12/28 02:53:29;;;;;;;15.00;8.20;;;;;;;1.90;77.22;100860.51;126261;1301;107513;-78
2022/12/28 02:56:44;;;;;;;15.50;8.60;;;;;;;1.87;77.21;100854.21;126242;1302;107497;-77
2022/12/28 03:00:02;;;;;;;14.80;8.10;;;;;;;1.87;77.50;100849.09;126235;1301;107511;-77
2022/12/28 03:03:20;;;;;;;15.80;7.90;;;;;;;1.96;77.74;100845.27;126243;1301;107612;-78
2022/12/28 03:10:11;;;;;;;16.40;7.80;;;;;;;2.17;77.58;100847.49;126294;1301;108597;-79
2022/12/28 03:34:07;;;;;;;14.00;8.10;;;;;;;1.91;77.23;100808.53;126192;1301;107621;-79
2022/12/28 03:37:31;;;;;;;14.10;8.80;;;;;;;1.81;77.39;100804.67;126199;1301;108015;-76
2022/12/28 03:40:47;;;;;;;15.30;8.80;;;;;;;1.71;77.39;100804.89;126260;1301;108652;-77
2022/12/28 03:43:56;;;;;;;19.00;9.30;;;;;;;1.64;77.65;100798.28;126026;1304;105869;-77
2022/12/28 03:47:08;;;;;;;890.10;268.90;;;;;;;1.56;77.58;100792.15;126062;1304;107522;-79
2022/12/28 03:50:14;;;;;;;88.80;29.10;;;;;;;1.52;77.74;100787.27;126137;1302;107460;-79
2022/12/28 03:53:24;;;;;;;125.20;40.30;;;;;;;1.53;77.71;100787.77;126125;1307;106516;-77
2022/12/28 03:56:32;;;;;;;93.20;33.30;;;;;;;1.54;77.54;100786.64;125996;1303;107566;-77
2022/12/28 03:59:39;;;;;;;87.30;31.80;;;;;;;1.56;77.74;100781.80;126051;1304;107529;-77
2022/12/28 04:02:45;;;;;;;59.80;24.60;;;;;;;1.59;77.57;100783.27;126044;1294;107415;-78
2022/12/28 04:05:51;;;;;;;30.00;14.60;;;;;;;1.59;77.47;100774.48;126142;1305;107817;-78
2022/12/28 04:08:57;;;;;;;22.30;11.80;;;;;;;1.58;77.66;100768.04;126125;1304;107511;-78
2022/12/28 04:12:05;;;;;;;17.20;9.60;;;;;;;1.54;77.71;100767.52;126112;1302;107530;-78
2022/12/28 04:15:29;;;;;;;16.90;9.40;;;;;;;1.48;77.52;100773.31;126158;1302;107288;-79
2022/12/28 04:18:37;;;;;;;16.80;8.50;;;;;;;1.43;77.51;100774.29;126099;1296;107533;-80
2022/12/28 04:21:43;;;;;;;13.80;8.50;;;;;;;1.38;77.55;100768.42;126055;1304;107637;-76
2022/12/28 04:24:49;;;;;;;15.50;8.50;;;;;;;1.32;77.51;100761.18;126260;1302;107567;-77
2022/12/28 04:27:55;;;;;;;13.90;8.10;;;;;;;1.25;77.33;100755.45;126225;1304;107609;-77
2022/12/28 04:31:23;;;;;;;48.30;18.90;;;;;;;1.15;77.55;100761.02;126167;1303;107363;-77
2022/12/28 04:34:49;;;;;;;49.00;19.70;;;;;;;1.09;77.45;100765.57;126213;1303;107533;-78
2022/12/28 04:37:56;;;;;;;22.80;11.50;;;;;;;1.02;77.64;100764.70;126115;1304;106258;-77
2022/12/28 04:41:02;;;;;;;17.70;9.40;;;;;;;1.00;78.01;100760.23;126088;1304;107404;-77
2022/12/28 04:44:07;;;;;;;15.00;8.90;;;;;;;1.01;78.07;100761.08;126211;1302;107511;-78
2022/12/28 04:47:13;;;;;;;14.10;7.20;;;;;;;1.06;78.10;100761.30;126335;1303;107535;-79
2022/12/28 04:50:19;;;;;;;13.60;7.50;;;;;;;1.12;78.26;100756.61;126272;1295;107579;-77
2022/12/28 04:53:25;;;;;;;12.90;7.90;;;;;;;1.17;78.13;100754.97;126170;1295;108366;-77
2022/12/28 04:56:30;;;;;;;15.90;8.10;;;;;;;1.21;78.24;100759.14;126139;1302;108680;-76
2022/12/28 04:59:36;;;;;;;12.80;7.40;;;;;;;1.25;78.18;100758.42;126160;1295;107531;-76
2022/12/28 05:02:41;;;;;;;11.50;7.10;;;;;;;1.28;78.30;100756.84;126192;1293;107558;-76
2022/12/28 05:05:47;;;;;;;13.80;8.10;;;;;;;1.30;78.19;100753.78;126168;1301;107576;-77
2022/12/28 05:08:53;;;;;;;14.50;7.70;;;;;;;1.29;78.46;100753.63;126194;1293;105750;-76
2022/12/28 05:11:58;;;;;;;15.90;8.60;;;;;;;1.26;78.61;100742.92;126138;1301;107372;-76
2022/12/28 05:15:05;;;;;;;12.80;7.80;;;;;;;1.26;78.67;100743.48;126162;1293;107906;-79
2022/12/28 05:18:10;;;;;;;14.40;7.70;;;;;;;1.24;78.85;100737.98;126182;1301;107607;-76
2022/12/28 05:21:18;;;;;;;15.30;8.20;;;;;;;1.22;78.74;100730.70;126167;1298;107622;-76
2022/12/28 05:24:23;;;;;;;14.20;7.50;;;;;;;1.20;78.91;100723.30;126229;1302;107321;-76
2022/12/28 05:27:29;;;;;;;12.70;7.20;;;;;;;1.21;79.05;100725.01;126169;1301;108707;-79
2022/12/28 05:30:34;;;;;;;12.30;6.20;;;;;;;1.24;78.86;100732.34;126180;1302;105654;-78
2022/12/28 05:33:40;;;;;;;12.90;7.00;;;;;;;1.30;78.96;100727.98;126212;1294;105453;-77
2022/12/28 05:36:46;;;;;;;12.20;6.50;;;;;;;1.37;78.95;100729.36;126163;1301;108523;-77
2022/12/28 05:39:51;;;;;;;12.20;6.70;;;;;;;1.41;79.04;100720.56;126210;1294;107329;-76
2022/12/28 05:42:57;;;;;;;15.50;8.10;;;;;;;1.45;78.97;100723.52;126134;1302;107545;-75
2022/12/28 05:46:04;;;;;;;14.70;8.10;;;;;;;1.46;78.96;100723.65;126219;1291;107576;-78
2022/12/28 05:49:10;;;;;;;18.50;9.60;;;;;;;1.47;78.91;100726.05;126210;1301;107512;-77
2022/12/28 05:52:16;;;;;;;16.30;9.30;;;;;;;1.46;78.91;100728.88;126189;1295;107882;-77
2022/12/28 05:55:21;;;;;;;28.20;14.60;;;;;;;1.45;79.06;100733.34;126231;1294;107521;-77
2022/12/28 05:58:27;;;;;;;23.30;11.10;;;;;;;1.45;79.01;100730.20;126194;1300;106649;-76
2022/12/28 06:01:35;;;;;;;35.30;14.90;;;;;;;1.45;79.25;100736.14;126164;1301;107562;-76
2022/12/28 06:04:40;;;;;;;149.00;46.70;;;;;;;1.48;79.44;100734.91;126197;1301;107486;-77
2022/12/28 06:07:46;;;;;;;31.20;13.30;;;;;;;1.57;79.56;100725.98;126187;1301;107375;-77
2022/12/28 06:10:51;;;;;;;69.80;22.30;;;;;;;1.70;79.46;100720.42;126181;1301;107529;-78
2022/12/28 06:13:57;;;;;;;43.30;16.20;;;;;;;1.81;79.58;100713.14;126170;1301;107616;-78
2022/12/28 06:17:03;;;;;;;71.90;25.60;;;;;;;1.91;79.62;100709.73;126226;1300;107391;-77
2022/12/28 06:20:11;;;;;;;39.20;17.80;;;;;;;1.97;79.48;100700.15;126153;1301;107559;-75
2022/12/28 06:23:17;;;;;;;23.40;10.80;;;;;;;2.00;79.64;100703.82;126238;1301;107268;-76
2022/12/28 06:26:23;;;;;;;46.50;19.50;;;;;;;2.01;79.49;100711.67;126161;1301;107503;-77
2022/12/28 06:29:28;;;;;;;139.70;52.50;;;;;;;2.01;79.64;100708.66;126213;1308;107566;-76
2022/12/28 06:32:34;;;;;;;28.00;14.10;;;;;;;2.02;79.54;100712.31;126181;1292;107202;-74
2022/12/28 06:35:42;;;;;;;20.80;11.00;;;;;;;1.99;79.68;100703.70;126156;1301;107277;-75
2022/12/28 06:38:49;;;;;;;19.90;10.20;;;;;;;1.94;79.61;100697.98;126162;1298;107289;-75
2022/12/28 06:41:55;;;;;;;18.20;9.90;;;;;;;1.88;79.61;100697.65;126124;1298;107501;-75
2022/12/28 06:45:00;;;;;;;15.50;8.60;;;;;;;1.85;79.58;100697.13;126177;1302;106680;-78
2022/12/28 06:48:06;;;;;;;12.30;7.30;;;;;;;1.86;79.77;100695.87;126214;1301;107447;-77
2022/12/28 06:51:14;;;;;;;15.60;8.70;;;;;;;1.88;79.69;100698.02;126143;1301;107355;-77
2022/12/28 06:54:20;;;;;;;14.60;8.60;;;;;;;1.91;79.83;100693.10;126213;1301;107765;-77
2022/12/28 06:57:25;;;;;;;12.50;7.70;;;;;;;1.92;79.60;100691.83;126189;1301;107400;-78
2022/12/28 07:00:31;;;;;;;14.20;7.80;;;;;;;1.91;79.63;100680.08;126168;1287;107375;-75
2022/12/28 07:03:37;;;;;;;12.10;8.20;;;;;;;1.90;79.49;100678.59;126267;1281;107630;-76
2022/12/28 07:06:43;;;;;;;12.10;8.00;;;;;;;1.90;79.64;100680.52;126191;1294;107908;-75
2022/12/28 07:09:49;;;;;;;15.90;8.60;;;;;;;1.94;79.62;100678.88;126224;1294;108770;-76
2022/12/28 07:12:55;;;;;;;20.10;8.70;;;;;;;1.97;79.94;100675.70;126138;1287;106579;-79
2022/12/28 07:16:03;;;;;;;17.60;9.80;;;;;;;2.00;79.69;100672.93;126160;1287;107588;-77
2022/12/28 07:19:15;;;;;;;15.60;8.70;;;;;;;1.99;79.92;100668.27;126218;1287;106421;-77
2022/12/28 07:22:20;;;;;;;11.50;7.00;;;;;;;2.00;79.92;100668.41;126244;1293;106635;-76
2022/12/28 07:25:26;;;;;;;23.60;12.10;;;;;;;2.05;79.98;100665.98;126195;1287;107369;-78
2022/12/28 07:28:31;;;;;;;95.60;41.70;;;;;;;2.10;79.72;100664.30;126166;1287;106657;-76
2022/12/28 07:31:39;;;;;;;62.60;25.60;;;;;;;2.14;79.69;100664.90;126299;1293;107524;-76
2022/12/28 07:34:44;;;;;;;288.80;97.30;;;;;;;2.19;79.59;100662.56;126287;1287;107721;-78
2022/12/28 07:37:50;;;;;;;394.80;116.20;;;;;;;2.18;79.82;100656.43;126320;1287;107528;-78
2022/12/28 07:41:03;;;;;;;69.30;24.70;;;;;;;2.22;79.78;100656.42;126205;1294;107349;-75
2022/12/28 07:44:08;;;;;;;148.20;43.00;;;;;;;2.23;79.75;100647.42;126500;1287;105559;-77
2022/12/28 07:47:14;;;;;;;51.00;20.40;;;;;;;2.23;79.78;100645.12;126585;1287;107469;-76
2022/12/28 07:50:20;;;;;;;93.60;32.40;;;;;;;2.24;79.85;100643.48;126299;1294;107527;-77
2022/12/28 07:53:25;;;;;;;235.10;79.00;;;;;;;2.26;79.86;100645.80;126313;1307;107664;-75
2022/12/28 07:56:32;;;;;;;74.80;31.40;;;;;;;2.33;79.98;100644.85;126291;1293;107672;-75
2022/12/28 07:59:37;;;;;;;57.40;26.90;;;;;;;2.46;79.79;100646.25;126253;1302;107461;-75
2022/12/28 08:02:43;;;;;;;27.40;14.90;;;;;;;2.59;79.87;100643.54;126462;1292;106439;-75
2022/12/28 08:05:48;;;;;;;41.30;21.70;;;;;;;2.66;79.78;100638.14;126439;1295;107464;-73
2022/12/28 08:08:56;;;;;;;27.00;13.70;;;;;;;2.73;79.67;100640.52;126442;1301;107523;-77
2022/12/28 08:12:02;;;;;;;18.40;10.90;;;;;;;2.81;79.73;100644.33;126272;1301;107492;-76
2022/12/28 08:15:09;;;;;;;18.30;10.10;;;;;;;2.85;79.79;100646.67;126274;1294;107256;-73
2022/12/28 08:18:15;;;;;;;22.70;13.10;;;;;;;2.90;79.56;100651.43;126092;1307;107527;-72
2022/12/28 08:21:22;;;;;;;50.50;22.20;;;;;;;2.99;79.66;100649.66;126102;1294;107309;-76
2022/12/28 08:24:28;;;;;;;78.20;29.40;;;;;;;3.06;79.56;100649.94;126149;1288;107537;-76
2022/12/28 08:27:33;;;;;;;58.80;22.00;;;;;;;3.11;79.57;100643.66;126072;1304;107278;-77
2022/12/28 08:30:39;;;;;;;54.30;20.70;;;;;;;3.20;79.53;100641.69;126037;1302;107694;-77
2022/12/28 08:33:45;;;;;;;40.90;16.80;;;;;;;3.31;79.44;100643.30;126297;1287;107528;-77
2022/12/28 08:36:50;;;;;;;67.10;32.20;;;;;;;3.41;79.30;100643.39;126262;1302;107550;-76
2022/12/28 08:39:56;;;;;;;34.50;17.40;;;;;;;3.52;79.30;100638.07;126246;1304;105661;-76
2022/12/28 08:43:02;;;;;;;30.90;15.70;;;;;;;3.60;79.12;100635.80;126360;1288;105507;-76
2022/12/28 08:46:11;;;;;;;22.10;14.30;;;;;;;3.66;79.16;100636.89;126161;1297;107466;-77
2022/12/28 08:49:17;;;;;;;20.30;10.90;;;;;;;3.71;78.94;100635.42;126146;1302;107710;-77
2022/12/28 08:52:23;;;;;;;21.90;11.00;;;;;;;3.77;78.85;100637.23;126099;1300;107543;-77
2022/12/28 08:55:29;;;;;;;16.70;10.00;;;;;;;3.80;78.68;100631.19;126155;1304;107535;-77
2022/12/28 08:58:34;;;;;;;19.10;11.10;;;;;;;3.84;78.79;100624.08;126096;1302;107616;-78
2022/12/28 09:01:41;;;;;;;19.00;9.40;;;;;;;3.87;78.45;100619.12;126140;1301;107394;-77
2022/12/28 09:04:47;;;;;;;15.50;9.30;;;;;;;3.89;78.57;100618.30;126277;1294;107277;-78
2022/12/28 09:07:53;;;;;;;15.60;9.00;;;;;;;3.92;78.48;100617.40;126418;1288;107565;-78
2022/12/28 09:11:02;;;;;;;17.50;9.80;;;;;;;3.96;78.59;100613.27;126189;1305;107513;-78
2022/12/28 09:14:09;;;;;;;31.00;19.10;;;;;;;4.02;78.59;100613.35;126161;1304;107475;-75
2022/12/28 09:17:15;;;;;;;42.70;28.10;;;;;;;4.11;78.63;100615.77;126325;1295;107381;-74
2022/12/28 09:20:20;;;;;;;37.80;15.80;;;;;;;4.22;78.60;100611.17;126921;1288;107635;-76
2022/12/28 09:23:29;;;;;;;42.10;17.80;;;;;;;4.32;78.32;100607.16;126277;1294;107570;-81
2022/12/28 09:26:38;;;;;;;20.60;10.90;;;;;;;4.38;78.15;100602.01;126188;1288;107384;-76
2022/12/28 09:29:50;;;;;;;19.50;10.60;;;;;;;4.41;78.04;100599.67;126335;1308;107064;-74
2022/12/28 09:33:57;;;;;;;19.30;9.60;;;;;;;4.42;77.99;100592.77;126415;1287;107377;-76
2022/12/28 09:36:23;;;;;;;19.40;10.50;;;;;;;4.44;77.85;100590.66;126577;1278;108816;-75
2022/12/28 09:39:29;;;;;;;17.50;10.30;;;;;;;4.45;77.76;100589.33;126222;1294;107574;-78
2022/12/28 09:42:39;;;;;;;27.10;14.80;;;;;;;4.46;77.82;100586.67;126273;1284;107527;-77
2022/12/28 09:45:45;;;;;;;28.20;14.40;;;;;;;4.49;77.64;100581.17;126269;1297;107422;-77
2022/12/28 09:48:54;;;;;;;77.10;29.40;;;;;;;4.48;77.49;100575.02;126370;1294;107389;-74
2022/12/28 09:52:06;;;;;;;29.80;12.80;;;;;;;4.48;77.42;100568.55;126298;1287;108515;-76
2022/12/28 09:55:15;;;;;;;103.50;36.90;;;;;;;4.44;77.25;100565.27;126886;1284;107490;-76
2022/12/28 09:58:22;;;;;;;69.80;26.80;;;;;;;4.42;77.41;100561.75;126465;1291;106658;-73
2022/12/28 10:01:28;;;;;;;76.50;28.50;;;;;;;4.46;77.53;100560.08;126456;1287;107504;-73
2022/12/28 10:04:33;;;;;;;140.30;39.30;;;;;;;4.45;77.30;100559.04;126310;1294;108710;-71
2022/12/28 10:07:39;;;;;;;36.90;14.70;;;;;;;4.44;77.24;100551.39;126193;1287;106282;-72
2022/12/28 10:10:45;;;;;;;203.40;59.50;;;;;;;4.48;77.15;100542.42;126039;1287;107438;-72
2022/12/28 10:13:56;;;;;;;30.20;13.70;;;;;;;4.54;77.10;100538.16;126273;1287;106670;-73
2022/12/28 10:17:05;;;;;;;175.20;56.10;;;;;;;4.60;77.01;100530.70;126248;1293;107662;-76
2022/12/28 10:20:17;;;;;;;121.90;39.50;;;;;;;4.64;77.14;100526.71;126217;1302;107829;-79
2022/12/28 10:23:27;;;;;;;37.40;15.00;;;;;;;4.70;76.86;100527.30;126121;1304;107270;-77
2022/12/28 10:26:35;;;;;;;77.40;30.90;;;;;;;4.71;76.81;100526.37;126535;1294;108692;-74
2022/12/28 10:29:44;;;;;;;70.70;29.20;;;;;;;4.71;76.73;100510.36;126242;1294;107454;-77
2022/12/28 10:32:55;;;;;;;30.40;14.10;;;;;;;4.69;76.58;100493.21;126168;1287;107483;-75
2022/12/28 10:36:01;;;;;;;28.30;13.70;;;;;;;4.66;76.81;100485.86;126306;1294;107532;-75
2022/12/28 10:39:11;;;;;;;23.80;11.40;;;;;;;4.65;76.77;100481.14;126137;1294;107354;-75
2022/12/28 10:42:24;;;;;;;18.90;11.00;;;;;;;4.64;76.80;100475.64;126185;1293;107436;-76
2022/12/28 10:45:38;;;;;;;70.80;27.90;;;;;;;4.63;76.60;100471.47;126151;1294;107435;-76
2022/12/28 10:48:49;;;;;;;27.90;14.70;;;;;;;4.63;76.67;100463.86;126174;1294;107530;-76
2022/12/28 10:52:06;;;;;;;21.40;12.00;;;;;;;4.64;76.53;100456.98;126161;1287;107584;-77
2022/12/28 10:55:29;;;;;;;38.70;17.30;;;;;;;4.64;76.69;100453.41;126214;1294;106564;-81
2022/12/28 10:58:35;;;;;;;141.30;46.80;;;;;;;4.64;76.64;100448.46;126408;1294;107525;-73
2022/12/28 11:01:42;;;;;;;38.40;17.00;;;;;;;4.63;76.42;100447.15;126120;1295;107519;-75
2022/12/28 11:04:56;;;;;;;19.90;10.00;;;;;;;4.62;76.49;100448.98;126228;1302;108620;-75
2022/12/28 11:08:07;;;;;;;25.40;12.40;;;;;;;4.67;76.51;100455.85;126325;1301;107680;-75
2022/12/28 11:11:22;;;;;;;299.80;126.00;;;;;;;4.72;76.52;100453.86;126256;1301;106807;-76
2022/12/28 11:14:33;;;;;;;51.10;28.80;;;;;;;4.84;76.47;100449.38;126222;1291;107340;-78
2022/12/28 11:17:39;;;;;;;23.30;12.70;;;;;;;4.92;76.38;100445.05;126124;1303;107548;-76
2022/12/28 11:20:48;;;;;;;19.50;10.40;;;;;;;4.98;76.18;100433.30;126149;1304;107550;-79
2022/12/28 11:23:54;;;;;;;18.00;9.90;;;;;;;5.03;76.18;100430.88;126209;1302;107583;-76
2022/12/28 11:26:59;;;;;;;17.50;9.80;;;;;;;5.04;76.04;100424.79;126181;1302;107457;-78
2022/12/28 11:30:06;;;;;;;16.60;9.80;;;;;;;5.04;76.11;100422.14;126087;1304;107535;-76
2022/12/28 11:33:26;;;;;;;15.90;9.20;;;;;;;5.04;76.03;100413.10;126211;1287;106584;-76
2022/12/28 11:36:37;;;;;;;14.70;9.40;;;;;;;5.03;75.93;100408.27;126172;1307;107291;-74
2022/12/28 11:39:47;;;;;;;15.60;8.40;;;;;;;5.01;75.84;100399.96;126108;1302;107345;-79
2022/12/28 11:42:57;;;;;;;13.60;8.60;;;;;;;4.99;75.66;100388.49;126214;1304;105427;-76
2022/12/28 11:46:04;;;;;;;13.10;8.30;;;;;;;5.00;75.81;100378.35;126079;1305;108551;-75
2022/12/28 11:49:33;;;;;;;14.40;8.60;;;;;;;5.02;75.39;100363.91;126184;1303;107322;-76
2022/12/28 11:52:49;;;;;;;14.60;8.80;;;;;;;4.99;75.66;100363.23;126122;1302;107478;-75
2022/12/28 11:56:11;;;;;;;14.20;9.20;;;;;;;5.00;75.58;100352.45;126031;1302;107393;-74
2022/12/28 11:59:24;;;;;;;16.20;9.10;;;;;;;5.02;75.53;100351.24;126103;1302;107849;-75
2022/12/28 12:02:47;;;;;;;16.00;8.90;;;;;;;5.04;75.79;100345.29;126262;1295;107540;-74
2022/12/28 12:05:54;;;;;;;18.30;9.70;;;;;;;5.07;75.76;100334.07;126246;1301;107624;-77
2022/12/28 12:08:59;;;;;;;15.70;9.20;;;;;;;5.11;75.65;100331.51;126172;1306;107375;-76
2022/12/28 12:12:36;;;;;;;18.50;9.40;;;;;;;5.19;75.63;100324.04;126151;1303;107422;-77
2022/12/28 12:15:45;;;;;;;18.00;8.60;;;;;;;5.26;75.67;100317.02;126128;1302;107584;-78
2022/12/28 12:18:54;;;;;;;15.20;8.40;;;;;;;5.27;75.34;100308.79;126217;1302;107452;-75
2022/12/28 12:22:10;;;;;;;15.50;8.70;;;;;;;5.26;75.37;100308.00;126231;1300;107451;-76
2022/12/28 12:25:21;;;;;;;15.10;8.30;;;;;;;5.23;75.28;100303.30;126240;1307;107312;-76
2022/12/28 12:28:37;;;;;;;13.20;7.80;;;;;;;5.22;75.02;100300.86;126292;1295;107509;-76
2022/12/28 12:31:48;;;;;;;12.10;6.80;;;;;;;5.17;75.21;100302.54;126188;1304;107437;-77
2022/12/28 12:35:00;;;;;;;13.30;7.50;;;;;;;5.14;75.01;100293.91;126215;1303;107532;-76
2022/12/28 12:38:14;;;;;;;13.20;6.60;;;;;;;5.10;75.03;100278.85;126153;1304;108861;-79
2022/12/28 12:41:31;;;;;;;11.50;6.30;;;;;;;5.07;75.04;100274.52;126181;1304;107072;-77
2022/12/28 12:44:48;;;;;;;12.30;6.90;;;;;;;5.05;74.99;100268.66;126208;1303;106558;-80
2022/12/28 12:48:09;;;;;;;15.00;7.60;;;;;;;5.02;74.84;100250.94;126182;1297;107608;-75
2022/12/28 12:51:28;;;;;;;12.10;7.20;;;;;;;4.99;74.97;100242.19;126204;1303;106563;-81
2022/12/28 12:54:49;;;;;;;12.10;7.00;;;;;;;4.97;74.86;100246.55;126238;1305;107496;-77
2022/12/28 12:58:02;;;;;;;11.70;6.70;;;;;;;4.95;74.85;100244.09;126250;1304;107537;-79
2022/12/28 13:01:26;;;;;;;11.20;6.50;;;;;;;4.95;74.69;100238.05;126384;1304;107545;-78
2022/12/28 13:04:35;;;;;;;14.80;7.20;;;;;;;4.92;74.77;100228.72;126369;1302;107471;-77
2022/12/28 13:07:41;;;;;;;12.30;5.90;;;;;;;4.94;74.79;100220.83;126341;1307;107505;-78
2022/12/28 13:10:47;;;;;;;20.20;8.70;;;;;;;4.98;74.61;100216.12;126410;1301;107648;-80
2022/12/28 13:13:54;;;;;;;10.60;5.60;;;;;;;5.05;74.94;100217.38;126292;1295;107543;-78
2022/12/28 13:17:00;;;;;;;10.00;5.70;;;;;;;5.13;74.77;100221.02;126104;1296;107439;-77
2022/12/28 13:20:20;;;;;;;12.40;6.30;;;;;;;5.20;74.57;100223.40;126074;1294;107534;-77
2022/12/28 13:23:28;;;;;;;11.00;6.10;;;;;;;5.24;74.35;100223.11;126007;1303;107405;-77
2022/12/28 13:26:34;;;;;;;10.40;5.50;;;;;;;5.25;74.21;100212.69;126059;1307;107638;-77
2022/12/28 13:29:41;;;;;;;14.50;7.90;;;;;;;5.24;74.43;100207.83;126019;1307;107443;-77
2022/12/28 13:32:53;;;;;;;11.10;5.90;;;;;;;5.23;74.42;100205.77;126185;1301;106292;-78
2022/12/28 13:36:14;;;;;;;10.30;6.40;;;;;;;5.19;74.47;100201.98;126165;1287;106917;-77
2022/12/28 13:39:21;;;;;;;10.30;4.90;;;;;;;5.15;74.36;100207.62;126209;1294;107456;-78
2022/12/28 13:42:34;;;;;;;11.20;5.70;;;;;;;5.08;74.04;100195.27;126145;1295;106701;-78
2022/12/28 13:45:40;;;;;;;10.90;5.90;;;;;;;5.02;74.58;100188.29;126145;1295;107442;-77
2022/12/28 13:48:48;;;;;;;11.90;5.50;;;;;;;5.00;74.30;100192.15;126111;1308;109200;-78
2022/12/28 13:51:55;;;;;;;10.10;5.50;;;;;;;4.99;74.32;100192.83;126073;1291;108728;-79
2022/12/28 13:55:05;;;;;;;11.80;5.90;;;;;;;4.97;74.22;100181.86;126158;1304;107673;-78
2022/12/28 13:58:14;;;;;;;11.00;5.20;;;;;;;4.95;74.21;100182.02;126048;1304;106374;-78
2022/12/28 14:01:23;;;;;;;8.70;5.00;;;;;;;4.93;74.27;100182.65;126113;1290;107480;-78
2022/12/28 14:04:30;;;;;;;14.60;5.60;;;;;;;4.92;74.19;100170.92;126212;1302;107419;-77
2022/12/28 14:07:37;;;;;;;9.60;5.10;;;;;;;4.90;74.19;100161.95;126167;1307;107521;-78
2022/12/28 14:10:45;;;;;;;8.50;4.40;;;;;;;4.88;74.10;100158.88;126102;1295;107632;-77
2022/12/28 14:13:51;;;;;;;8.90;4.50;;;;;;;4.92;74.21;100155.61;126040;1307;107400;-77
2022/12/28 14:16:57;;;;;;;10.10;5.40;;;;;;;4.97;74.08;100153.63;126094;1305;107541;-77
2022/12/28 14:20:03;;;;;;;10.60;5.30;;;;;;;5.03;74.17;100156.31;126086;1302;105387;-77
2022/12/28 14:23:23;;;;;;;11.70;5.50;;;;;;;5.08;73.89;100158.02;126155;1294;108543;-78
2022/12/28 14:26:29;;;;;;;10.60;5.20;;;;;;;5.11;74.06;100156.55;126121;1293;107577;-78
2022/12/28 14:29:36;;;;;;;11.20;5.50;;;;;;;5.11;73.82;100156.04;126357;1294;110536;-79
2022/12/28 14:32:43;;;;;;;12.30;6.00;;;;;;;5.09;74.04;100149.13;126253;1293;107115;-79
2022/12/28 14:35:51;;;;;;;10.20;5.10;;;;;;;5.08;73.97;100141.84;126685;1291;107757;-78
2022/12/28 14:38:59;;;;;;;10.10;5.50;;;;;;;5.04;73.97;100135.83;126256;1294;106221;-79
2022/12/28 14:42:16;;;;;;;12.90;4.90;;;;;;;4.99;73.55;100135.13;126179;1293;107652;-79